Effie, Louisiana
Current Conditions -  °F | °C
As of 4:53 PM on Saturday 25 Oct 2014 (Local Time) from KESF Reporting Station
Clear Clear  
Wind Chill: 80°   Ceiling: Unl
Heat Index: 80°   Visibility: 10mi
Dew Point: 53°   Wind: 3mph
Humidity: 39%   Direction: 310°NW
Pressure: 30.09"   Gusts: NA
Location:  31.22°N, 92.16°W
Report Text: KESF 252153Z AUTO 31003KT 10SM CLR 27/12 A3009 RMK AO2 SLP187 T02670117
Loading
Personal Weather Stations






























Interactive Weather Map
Tropical Storm Tracking
New forecast layout! Learn more

10-Day Weather Forecast

Advertisements
Track Severe Weather on mobile